createdAt,value
2023-01-15T00:04:39.423Z,52.53
2023-01-15T00:09:33.617Z,54.05
2023-01-15T00:14:28.186Z,54.40
2023-01-15T00:19:20.956Z,54.50
2023-01-15T00:24:33.045Z,54.38
2023-01-15T00:29:27.877Z,56.22
2023-01-15T00:34:21.542Z,53.30
2023-01-15T00:39:14.931Z,54.13
2023-01-15T00:44:08.214Z,53.70
2023-01-15T00:49:01.144Z,53.08
2023-01-15T00:53:55.210Z,52.53
2023-01-15T00:58:49.271Z,47.60
2023-01-15T01:03:42.380Z,48.88
2023-01-15T01:08:40.199Z,46.95
2023-01-15T01:13:33.705Z,44.50
2023-01-15T01:18:26.796Z,47.53
2023-01-15T01:23:20.340Z,43.08
2023-01-15T01:28:13.437Z,43.45
2023-01-15T01:33:07.056Z,45.55
2023-01-15T01:38:00.327Z,46.38
2023-01-15T01:42:52.927Z,44.97
2023-01-15T01:47:46.606Z,44.97
2023-01-15T01:52:57.788Z,48.50
2023-01-15T01:57:54.377Z,49.17
2023-01-15T02:02:48.869Z,49.42
2023-01-15T02:07:41.782Z,47.05
2023-01-15T02:12:38.392Z,50.42
2023-01-15T02:17:39.027Z,47.58
2023-01-15T02:23:11.484Z,48.95
2023-01-15T02:28:27.996Z,49.83
2023-01-15T02:34:04.432Z,46.38
2023-01-15T02:39:39.602Z,48.72
2023-01-15T02:44:54.702Z,46.47
2023-01-15T02:50:09.037Z,49.08
2023-01-15T02:55:45.321Z,45.55
2023-01-15T03:00:42.434Z,44.95
2023-01-15T03:06:03.054Z,45.60
2023-01-15T03:11:08.876Z,47.75
2023-01-15T03:16:38.786Z,50.75
2023-01-15T03:22:00.509Z,47.30
2023-01-15T03:26:54.791Z,43.00
2023-01-15T03:31:50.435Z,42.22
2023-01-15T03:36:44.433Z,47.47
2023-01-15T03:42:16.095Z,43.92
2023-01-15T03:47:36.047Z,46.75
2023-01-15T03:52:46.970Z,46.50
2023-01-15T03:58:08.356Z,44.47
2023-01-15T04:03:07.266Z,46.67
2023-01-15T04:08:01.997Z,44.83
2023-01-15T04:12:57.519Z,43.50
2023-01-15T04:17:51.483Z,44.55
2023-01-15T04:22:45.651Z,46.85
2023-01-15T04:27:39.558Z,44.55
2023-01-15T04:32:33.358Z,43.25
2023-01-15T04:37:26.767Z,45.78
2023-01-15T04:42:38.604Z,48.67
2023-01-15T04:47:32.576Z,45.88
2023-01-15T04:52:26.218Z,44.70
2023-01-15T04:57:20.079Z,44.80
2023-01-15T05:02:15.300Z,46.10
2023-01-15T05:07:08.331Z,43.85
2023-01-15T05:12:02.762Z,45.22
2023-01-15T05:16:56.565Z,42.22
2023-01-15T05:21:49.436Z,41.92
2023-01-15T05:26:43.990Z,41.05
2023-01-15T05:31:37.836Z,40.38
2023-01-15T05:36:33.172Z,41.97
2023-01-15T05:41:45.283Z,41.88
2023-01-15T05:46:40.102Z,42.80
2023-01-15T05:51:33.453Z,44.28
2023-01-15T05:56:27.424Z,46.55
2023-01-15T06:01:21.876Z,43.80
2023-01-15T06:06:17.649Z,46.65
2023-01-15T06:11:12.113Z,46.55
2023-01-15T06:16:07.269Z,47.88
2023-01-15T06:21:05.868Z,45.88
2023-01-15T06:26:04.023Z,49.25
2023-01-15T06:30:57.478Z,48.10
2023-01-15T06:35:50.371Z,48.72
2023-01-15T06:40:44.504Z,50.60
2023-01-15T06:45:57.590Z,50.28
2023-01-15T06:50:51.293Z,50.33
2023-01-15T06:55:44.648Z,49.08
2023-01-15T07:00:37.952Z,49.65
2023-01-15T07:05:31.693Z,51.90
2023-01-15T07:10:25.752Z,50.67
2023-01-15T07:15:19.913Z,49.38
2023-01-15T07:20:14.600Z,47.55
2023-01-15T07:25:12.140Z,46.72
2023-01-15T07:30:08.210Z,44.95
2023-01-15T07:35:01.161Z,44.85
2023-01-15T07:39:54.891Z,47.42
2023-01-15T07:45:25.952Z,45.55
2023-01-15T07:50:21.531Z,48.15
2023-01-15T07:55:16.153Z,49.97
2023-01-15T08:00:21.712Z,50.60
2023-01-15T08:05:16.169Z,50.53
2023-01-15T08:10:14.875Z,50.53
2023-01-15T08:15:14.126Z,54.40
2023-01-15T08:20:12.286Z,54.92
2023-01-15T08:25:06.769Z,53.80
2023-01-15T08:30:00.246Z,57.72
2023-01-15T08:34:54.343Z,58.47
2023-01-15T08:39:48.358Z,54.20
2023-01-15T08:44:42.540Z,54.83
2023-01-15T08:49:36.564Z,50.05
2023-01-15T08:54:30.925Z,51.58
2023-01-15T08:59:23.999Z,49.60
2023-01-15T09:04:19.206Z,44.35
2023-01-15T09:09:13.226Z,47.55
2023-01-15T09:14:08.999Z,50.30
2023-01-15T09:19:22.705Z,50.10
2023-01-15T09:24:16.728Z,52.88
2023-01-15T09:29:11.413Z,50.15
2023-01-15T09:34:05.411Z,56.63
2023-01-15T09:38:59.994Z,53.72
2023-01-15T09:44:01.193Z,52.13
2023-01-15T09:49:07.330Z,53.30
2023-01-15T09:54:36.950Z,54.45
2023-01-15T09:59:36.889Z,53.93
2023-01-15T10:04:39.214Z,54.83
2023-01-15T10:09:37.931Z,53.63
2023-01-15T10:14:59.208Z,53.20
2023-01-15T10:19:53.190Z,54.22
2023-01-15T10:24:57.725Z,54.65
2023-01-15T10:29:54.999Z,55.53
2023-01-15T10:34:50.613Z,54.13
2023-01-15T10:40:38.936Z,60.83
2023-01-15T10:45:37.161Z,52.47
2023-01-15T10:50:31.224Z,54.83
2023-01-15T10:55:38.459Z,54.38
2023-01-15T11:00:31.741Z,51.05
2023-01-15T11:05:26.252Z,54.65
2023-01-15T11:10:22.413Z,53.70
2023-01-15T11:15:37.822Z,56.08
2023-01-15T11:20:34.859Z,55.95
2023-01-15T11:25:33.262Z,52.50
2023-01-15T11:30:29.822Z,58.83
2023-01-15T11:35:23.616Z,53.92
2023-01-15T11:40:24.173Z,55.55
2023-01-15T11:45:40.950Z,54.40
2023-01-15T11:50:45.626Z,52.40
2023-01-15T11:55:39.847Z,59.63
2023-01-15T12:00:38.092Z,53.92
2023-01-15T12:05:33.651Z,57.13
2023-01-15T12:10:47.346Z,60.55
2023-01-15T12:15:55.705Z,58.15
2023-01-15T12:21:04.653Z,52.03
2023-01-15T12:26:18.045Z,56.90
2023-01-15T12:31:20.199Z,54.22
2023-01-15T12:36:18.232Z,56.80
2023-01-15T12:41:15.987Z,57.55
2023-01-15T12:46:13.863Z,53.35
2023-01-15T12:51:07.826Z,53.78
2023-01-15T12:56:22.411Z,54.40
2023-01-15T13:01:24.029Z,58.00
2023-01-15T13:06:17.803Z,58.72
2023-01-15T13:11:19.357Z,59.30
2023-01-15T13:16:20.682Z,60.65
2023-01-15T13:21:16.237Z,54.15
2023-01-15T13:26:33.579Z,56.55
2023-01-15T13:31:46.645Z,57.95
2023-01-15T13:36:46.580Z,58.25
2023-01-15T13:41:58.858Z,59.72
2023-01-15T13:47:07.656Z,57.97
2023-01-15T13:52:04.794Z,57.28
2023-01-15T13:57:10.916Z,56.72
2023-01-15T14:02:26.607Z,61.33
2023-01-15T14:07:32.699Z,58.95
2023-01-15T14:12:48.897Z,57.22
2023-01-15T14:18:35.149Z,56.92
2023-01-15T14:23:53.650Z,57.38
2023-01-15T14:29:12.789Z,62.30
2023-01-15T14:34:24.728Z,60.00
2023-01-15T14:39:44.779Z,57.88
2023-01-15T14:44:47.567Z,58.33
2023-01-15T14:49:49.776Z,59.63
2023-01-15T14:54:44.601Z,61.70
2023-01-15T14:59:50.796Z,58.72
2023-01-15T15:04:45.563Z,61.67
2023-01-15T15:10:01.152Z,60.70
2023-01-15T15:15:12.593Z,64.03
2023-01-15T15:20:42.047Z,65.75
2023-01-15T15:25:39.501Z,64.80
2023-01-15T15:30:38.797Z,62.95
2023-01-15T15:35:32.896Z,64.65
2023-01-15T15:40:31.563Z,64.88
2023-01-15T15:45:48.588Z,69.40
2023-01-15T15:50:42.019Z,64.13
2023-01-15T15:55:39.927Z,62.05
2023-01-15T16:00:39.661Z,66.03
2023-01-15T16:05:33.296Z,62.75
2023-01-15T16:10:31.188Z,64.20
2023-01-15T16:15:32.588Z,59.42
2023-01-15T16:20:25.772Z,62.55
2023-01-15T16:25:23.202Z,59.90
2023-01-15T16:30:18.573Z,60.83
2023-01-15T16:35:30.725Z,60.67
2023-01-15T16:40:27.938Z,59.67
2023-01-15T16:45:29.578Z,66.93
2023-01-15T16:50:22.675Z,63.03
2023-01-15T16:55:36.368Z,61.53
2023-01-15T17:00:31.571Z,60.75
2023-01-15T17:05:25.755Z,65.82
2023-01-15T17:10:27.627Z,62.95
2023-01-15T17:15:20.782Z,61.80
2023-01-15T17:20:24.233Z,63.88
2023-01-15T17:25:44.129Z,60.53
2023-01-15T17:30:38.377Z,63.08
2023-01-15T17:35:32.411Z,62.50
2023-01-15T17:40:26.585Z,64.93
2023-01-15T17:45:24.996Z,66.00
2023-01-15T17:50:21.319Z,63.90
2023-01-15T17:55:53.663Z,65.22
2023-01-15T18:01:05.812Z,65.25
2023-01-15T18:06:00.234Z,65.03
2023-01-15T18:10:54.452Z,65.05
2023-01-15T18:15:48.003Z,67.40
2023-01-15T18:20:41.201Z,64.15
2023-01-15T18:25:35.661Z,66.03
2023-01-15T18:30:29.368Z,63.17
2023-01-15T18:35:23.446Z,62.92
2023-01-15T18:40:17.796Z,59.83
2023-01-15T18:45:30.698Z,64.63
2023-01-15T18:50:24.875Z,65.93
2023-01-15T18:55:23.624Z,66.57
2023-01-15T19:00:18.602Z,62.65
2023-01-15T19:05:13.638Z,63.83
2023-01-15T19:10:09.310Z,63.08
2023-01-15T19:15:20.472Z,63.15
2023-01-15T19:20:17.029Z,66.60
2023-01-15T19:25:11.943Z,61.53
2023-01-15T19:30:07.370Z,63.38
2023-01-15T19:35:01.012Z,65.18
2023-01-15T19:39:55.262Z,66.47
2023-01-15T19:45:06.795Z,67.38
2023-01-15T19:50:18.920Z,68.45
2023-01-15T19:55:16.667Z,64.20
2023-01-15T20:00:12.481Z,67.82
2023-01-15T20:05:09.875Z,65.60
2023-01-15T20:10:05.864Z,66.68
2023-01-15T20:15:00.409Z,67.97
2023-01-15T20:19:55.160Z,63.90
2023-01-15T20:24:49.226Z,68.93
2023-01-15T20:29:43.726Z,66.38
2023-01-15T20:34:39.880Z,67.63
2023-01-15T20:39:33.434Z,63.53
2023-01-15T20:44:45.271Z,66.13
2023-01-15T20:49:38.557Z,63.67
2023-01-15T20:54:32.840Z,66.60
2023-01-15T20:59:26.621Z,63.88
2023-01-15T21:04:20.924Z,60.78
2023-01-15T21:09:15.312Z,62.33
2023-01-15T21:14:09.620Z,62.92
2023-01-15T21:19:05.195Z,65.32
2023-01-15T21:24:01.588Z,61.03
2023-01-15T21:28:55.555Z,60.63
2023-01-15T21:33:50.031Z,59.00
2023-01-15T21:38:44.183Z,59.80
2023-01-15T21:43:56.174Z,56.00
2023-01-15T21:48:52.632Z,54.50
2023-01-15T21:53:46.348Z,53.38
2023-01-15T21:58:43.874Z,55.63
2023-01-15T22:03:38.159Z,58.33
2023-01-15T22:08:32.566Z,55.67
2023-01-15T22:13:26.110Z,61.00
2023-01-15T22:18:20.016Z,62.38
2023-01-15T22:23:14.103Z,58.40
2023-01-15T22:28:08.284Z,59.15
2023-01-15T22:33:02.126Z,59.47
2023-01-15T22:37:55.953Z,60.13
2023-01-15T22:42:49.506Z,55.58
2023-01-15T22:47:43.835Z,55.75
2023-01-15T22:52:39.760Z,55.85
2023-01-15T22:57:33.613Z,50.05
2023-01-15T23:02:46.463Z,51.38
2023-01-15T23:07:41.596Z,44.35
2023-01-15T23:12:36.443Z,41.47
2023-01-15T23:17:30.293Z,45.80
2023-01-15T23:22:24.349Z,44.88
2023-01-15T23:27:17.494Z,41.55
2023-01-15T23:32:11.736Z,42.05
2023-01-15T23:37:05.388Z,41.80
2023-01-15T23:42:17.240Z,44.80
2023-01-15T23:47:11.696Z,43.95
2023-01-15T23:52:09.740Z,42.65
2023-01-15T23:57:04.453Z,42.85
